Weather at King Abdulaziz International Airport

Public forecast

Using degrees Celsius for public forecast. Weather courtesy of forecast.io.

Current aviation weather report (METAR) for King Abdulaziz International Airport

Retrieved 2021/02/26 04:00 UTC (2 hours ago):

OEJN 260400Z 35006KT 9999 FEW040 19/07 Q1013 NOSIG

Aviation forecast (TAF) for King Abdulaziz International Airport

Retrieved 2021-02-26 00:33 UTC (5 hours ago):

TAF OEJN 252300Z 2600/2706 02010KT 7000 FEW040 BECMG 2603/2605 09018KT PROB40 TEMPO 2603/2610 3500 BLDU BECMG 2611/2613 27014KT BECMG 2616/2618 35010KT